Time;durP1;ratioP1;P1;durP2;ratioP2;P2;SDS_P1;SDS_P2;PMS_P1;PMS_P2;Temp;Humidity;BMP_temperature;BMP_pressure;BME280_temperature;BME280_humidity;BME280_pressure;Samples;Min_cycle;Max_cycle;Signal;HPM_P1;HPM_P2
2021/10/31 00:01:28;;;;;;;;;;;;;;;29.06;69.42;101208.41;5014702;28;66618;-36
2021/10/31 00:03:58;;;;;;;;;;;;;;;29.09;69.25;101197.25;5016251;28;69382;-37
2021/10/31 00:06:30;;;;;;;;;;;;;;;29.11;67.84;101203.25;5013376;28;65395;-37
2021/10/31 00:09:00;;;;;;;;;;;;;;;29.16;69.32;101211.59;4998193;28;70545;-37
2021/10/31 00:11:32;;;;;;;;;;;;;;;29.17;69.54;101213.28;5004521;28;66638;-36
2021/10/31 00:14:02;;;;;;;;;;;;;;;29.20;69.52;101222.81;4997904;28;69933;-36
2021/10/31 00:16:32;;;;;;;;;;;;;;;29.22;68.37;101224.31;5018895;28;65583;-36
2021/10/31 00:19:06;;;;;;;;;;;;;;;29.25;67.02;101228.47;5017911;28;69937;-36
2021/10/31 00:21:36;;;;;;;;;;;;;;;29.26;66.70;101230.97;5016283;28;67217;-36
2021/10/31 00:24:09;;;;;;;;;;;;;;;29.28;69.13;101228.91;5012518;28;70525;-36
2021/10/31 00:26:46;;;;;;;;;;;;;;;29.31;67.60;101224.97;5016658;28;65767;-36
2021/10/31 00:29:20;;;;;;;;;;;;;;;29.33;70.44;101231.00;5016308;28;69681;-37
2021/10/31 00:31:50;;;;;;;;;;;;;;;29.36;68.14;101236.84;5019885;28;66654;-36
2021/10/31 00:34:21;;;;;;;;;;;;;;;29.38;69.67;101233.94;5017733;28;70015;-37
2021/10/31 00:36:51;;;;;;;;;;;;;;;29.39;68.27;101239.16;5019078;28;66367;-38
2021/10/31 00:39:22;;;;;;;;;;;;;;;29.44;70.27;101248.50;5018691;28;70028;-37
2021/10/31 00:41:52;;;;;;;;;;;;;;;29.45;69.25;101247.47;5018854;28;66369;-37
2021/10/31 00:44:22;;;;;;;;;;;;;;;29.47;68.89;101253.50;5023316;28;70249;-36
2021/10/31 00:46:53;;;;;;;;;;;;;;;29.50;71.04;101258.50;5019531;28;65504;-37
2021/10/31 00:49:23;;;;;;;;;;;;;;;29.49;70.94;101254.97;5012381;28;69456;-36
2021/10/31 00:51:54;;;;;;;;;;;;;;;29.42;72.42;101266.78;5013734;28;66711;-36
2021/10/31 00:54:24;;;;;;;;;;;;;;;29.40;71.28;101262.44;5014778;28;69873;-36
2021/10/31 00:56:54;;;;;;;;;;;;;;;29.38;71.62;101261.78;5014721;28;66535;-36
2021/10/31 00:59:26;;;;;;;;;;;;;;;29.42;71.31;101277.59;5017197;28;70305;-36
2021/10/31 01:01:58;;;;;;;;;;;;;;;29.43;70.05;101280.13;5014879;28;66379;-37
2021/10/31 01:04:35;;;;;;;;;;;;;;;29.43;71.60;101284.69;5014752;28;69910;-34
2021/10/31 01:07:20;;;;;;;;;;;;;;;29.46;70.39;101289.69;4999783;28;66584;-34
2021/10/31 01:10:10;;;;;;;;;;;;;;;29.44;71.33;101286.34;5010101;28;70157;-33
2021/10/31 01:13:02;;;;;;;;;;;;;;;29.46;71.36;101295.09;5015407;28;65900;-35
2021/10/31 01:15:45;;;;;;;;;;;;;;;29.48;72.00;101301.97;5015062;28;70343;-33
2021/10/31 01:18:19;;;;;;;;;;;;;;;29.51;71.33;101300.75;5007495;28;66532;-34
2021/10/31 01:20:49;;;;;;;;;;;;;;;29.54;70.49;101301.16;5016280;28;70734;-34
2021/10/31 01:23:20;;;;;;;;;;;;;;;29.57;71.94;101302.63;5012101;28;65758;-34
2021/10/31 01:26:03;;;;;;;;;;;;;;;29.58;70.95;101312.41;5011883;28;69939;-33
2021/10/31 01:28:56;;;;;;;;;;;;;;;29.56;71.30;101322.56;5011696;28;66316;-33
2021/10/31 01:31:45;;;;;;;;;;;;;;;29.57;70.62;101324.25;4998749;28;69111;-33
2021/10/31 01:34:30;;;;;;;;;;;;;;;29.63;70.97;101323.47;5000022;28;66568;-34
2021/10/31 01:37:00;;;;;;;;;;;;;;;29.67;70.83;101324.75;5008475;28;70241;-34
2021/10/31 01:39:40;;;;;;;;;;;;;;;29.71;70.51;101331.41;5009277;28;64892;-33
2021/10/31 01:42:14;;;;;;;;;;;;;;;29.73;70.41;101332.06;5011613;28;70103;-33
2021/10/31 01:44:51;;;;;;;;;;;;;;;29.76;70.81;101333.53;5011134;28;66986;-34
2021/10/31 01:47:24;;;;;;;;;;;;;;;29.78;71.00;101332.28;5008862;28;70081;-33
2021/10/31 01:49:54;;;;;;;;;;;;;;;29.80;70.08;101324.78;5012589;28;66137;-33
2021/10/31 01:52:37;;;;;;;;;;;;;;;29.84;70.71;101322.53;5008999;28;70025;-34
2021/10/31 01:55:27;;;;;;;;;;;;;;;29.89;69.62;101327.31;5011722;28;66528;-34
2021/10/31 01:58:00;;;;;;;;;;;;;;;29.89;70.66;101332.72;5004798;28;70238;-33
2021/10/31 02:00:31;;;;;;;;;;;;;;;29.90;70.46;101339.81;5012196;28;66380;-34
2021/10/31 02:03:03;;;;;;;;;;;;;;;29.91;70.09;101336.06;5011880;28;70603;-34
2021/10/31 02:05:36;;;;;;;;;;;;;;;29.89;70.02;101328.16;5006099;28;67040;-34
2021/10/31 02:08:09;;;;;;;;;;;;;;;29.97;69.45;101352.31;5012602;28;70462;-34
2021/10/31 02:10:40;;;;;;;;;;;;;;;30.00;69.63;101345.66;5011840;28;65864;-33
2021/10/31 02:13:11;;;;;;;;;;;;;;;30.04;69.42;101347.75;5012433;28;70041;-35
2021/10/31 02:15:43;;;;;;;;;;;;;;;30.07;69.92;101341.13;5011465;28;67008;-34
2021/10/31 02:18:14;;;;;;;;;;;;;;;30.12;69.42;101344.06;5011074;28;70203;-37
2021/10/31 02:20:55;;;;;;;;;;;;;;;30.11;69.21;101353.19;4994692;28;66854;-34
2021/10/31 02:23:26;;;;;;;;;;;;;;;30.15;68.69;101354.47;5009040;28;69563;-33
2021/10/31 02:25:57;;;;;;;;;;;;;;;30.21;68.73;101348.22;4994148;28;67648;-35
2021/10/31 02:28:28;;;;;;;;;;;;;;;30.22;68.54;101349.09;5013530;28;70787;-34
2021/10/31 02:30:58;;;;;;;;;;;;;;;30.24;68.39;101339.72;5010690;28;66079;-34
2021/10/31 02:33:29;;;;;;;;;;;;;;;30.30;68.27;101339.94;5012179;28;70122;-33
2021/10/31 02:36:00;;;;;;;;;;;;;;;30.34;67.70;101342.06;5013042;28;65981;-34
2021/10/31 02:38:31;;;;;;;;;;;;;;;30.40;68.00;101343.94;5013480;28;69494;-34
2021/10/31 02:41:01;;;;;;;;;;;;;;;30.44;66.88;101337.03;5016163;28;65585;-34
2021/10/31 02:43:31;;;;;;;;;;;;;;;30.47;66.70;101342.03;5009613;28;69643;-34
2021/10/31 02:46:02;;;;;;;;;;;;;;;30.54;66.66;101336.66;5009384;28;65561;-34
2021/10/31 02:48:34;;;;;;;;;;;;;;;30.56;66.84;101344.56;5012369;28;70427;-34
2021/10/31 02:51:17;;;;;;;;;;;;;;;30.60;66.37;101341.22;5006401;28;66684;-33
2021/10/31 02:53:58;;;;;;;;;;;;;;;30.62;66.33;101336.44;5007917;28;69591;-33
2021/10/31 02:56:34;;;;;;;;;;;;;;;30.67;67.01;101325.84;5012899;28;66772;-34
2021/10/31 02:59:13;;;;;;;;;;;;;;;30.70;66.49;101319.13;5013144;28;70442;-33
2021/10/31 03:01:44;;;;;;;;;;;;;;;30.73;66.11;101318.75;5014312;28;66205;-34
2021/10/31 03:04:18;;;;;;;;;;;;;;;30.76;65.82;101320.19;5009381;28;70975;-34
2021/10/31 03:06:48;;;;;;;;;;;;;;;30.79;65.84;101317.09;5007128;28;66388;-34
2021/10/31 03:09:18;;;;;;;;;;;;;;;30.81;65.47;101306.88;5010394;28;69736;-34
2021/10/31 03:12:04;;;;;;;;;;;;;;;30.84;65.37;101303.75;5009516;28;67259;-34
2021/10/31 03:14:35;;;;;;;;;;;;;;;30.86;65.51;101301.66;5006028;28;70270;-34
2021/10/31 03:17:06;;;;;;;;;;;;;;;30.87;65.51;101306.91;5010818;28;66569;-34
2021/10/31 03:19:38;;;;;;;;;;;;;;;30.90;65.24;101292.09;5012877;28;69695;-33
2021/10/31 03:22:08;;;;;;;;;;;;;;;30.94;65.48;101282.50;5014556;28;66326;-33
2021/10/31 03:24:39;;;;;;;;;;;;;;;30.95;65.19;101273.31;5012151;28;69343;-34
2021/10/31 03:27:09;;;;;;;;;;;;;;;30.96;65.16;101271.47;4996562;28;66377;-34
2021/10/31 03:29:40;;;;;;;;;;;;;;;31.00;66.30;101276.22;5011146;28;68905;-34
2021/10/31 03:32:11;;;;;;;;;;;;;;;31.04;66.57;101258.50;5012379;28;66474;-36
2021/10/31 03:35:10;;;;;;;;;;;;;;;31.11;67.75;101261.19;5012918;28;70253;-33
2021/10/31 03:37:42;;;;;;;;;;;;;;;31.08;68.38;101254.31;5008606;28;66499;-36
2021/10/31 03:40:13;;;;;;;;;;;;;;;31.09;68.28;101247.88;5009789;28;69856;-35
2021/10/31 03:42:43;;;;;;;;;;;;;;;31.05;68.19;101240.38;5007112;28;66503;-35
2021/10/31 03:45:14;;;;;;;;;;;;;;;31.11;67.85;101237.63;5010395;28;71276;-35
2021/10/31 03:47:48;;;;;;;;;;;;;;;31.12;66.67;101233.91;5009758;28;65773;-36
2021/10/31 03:50:23;;;;;;;;;;;;;;;31.11;67.20;101226.78;5010126;28;69347;-35
2021/10/31 03:52:55;;;;;;;;;;;;;;;31.12;66.89;101214.06;5011136;28;65230;-35
2021/10/31 03:55:25;;;;;;;;;;;;;;;31.15;66.83;101213.66;5010928;28;70206;-35
2021/10/31 03:57:56;;;;;;;;;;;;;;;31.19;67.04;101204.06;5007491;28;66293;-34
2021/10/31 04:00:27;;;;;;;;;;;;;;;31.22;65.29;101202.78;5010225;28;69343;-34
2021/10/31 04:02:58;;;;;;;;;;;;;;;31.24;65.26;101182.56;5015594;28;65829;-34
2021/10/31 04:05:30;;;;;;;;;;;;;;;31.26;64.24;101182.31;5015512;28;70515;-34
2021/10/31 04:08:00;;;;;;;;;;;;;;;31.29;63.96;101173.78;5003968;28;66817;-35
2021/10/31 04:10:43;;;;;;;;;;;;;;;31.28;63.52;101169.41;5020231;28;69175;-34
2021/10/31 04:13:14;;;;;;;;;;;;;;;31.31;63.10;101158.13;5021568;28;66262;-35
2021/10/31 04:15:45;;;;;;;;;;;;;;;31.35;63.17;101164.78;5019706;28;70254;-34
2021/10/31 04:18:16;;;;;;;;;;;;;;;31.43;62.92;101161.03;4995318;28;66763;-33
2021/10/31 04:20:46;;;;;;;;;;;;;;;31.45;62.81;101143.47;5020540;28;70622;-34
2021/10/31 04:23:16;;;;;;;;;;;;;;;31.49;63.02;101147.41;5016956;28;65901;-33
2021/10/31 04:25:47;;;;;;;;;;;;;;;31.50;62.93;101131.97;5013908;28;70211;-34
2021/10/31 04:28:18;;;;;;;;;;;;;;;31.51;62.95;101131.78;5019500;28;65577;-34
2021/10/31 04:30:48;;;;;;;;;;;;;;;31.54;62.43;101122.38;5016769;28;69404;-34
2021/10/31 04:33:19;;;;;;;;;;;;;;;31.56;62.94;101118.38;5016631;28;66347;-34
2021/10/31 04:35:49;;;;;;;;;;;;;;;31.59;62.72;101109.81;5015381;28;70156;-33
2021/10/31 04:38:22;;;;;;;;;;;;;;;31.63;62.87;101115.63;5013463;28;65257;-34
2021/10/31 04:40:53;;;;;;;;;;;;;;;31.60;62.52;101097.91;5017125;28;70420;-34
2021/10/31 04:43:26;;;;;;;;;;;;;;;31.67;62.12;101099.75;5013870;28;66283;-35
2021/10/31 04:45:56;;;;;;;;;;;;;;;31.68;64.55;101098.66;5011544;28;70577;-36
2021/10/31 04:48:27;;;;;;;;;;;;;;;31.72;65.29;101102.63;5011535;28;65671;-34
2021/10/31 04:50:57;;;;;;;;;;;;;;;31.73;64.55;101088.84;5010003;28;70020;-35
2021/10/31 04:53:28;;;;;;;;;;;;;;;31.76;63.69;101084.84;5011667;28;66183;-35
2021/10/31 04:55:59;;;;;;;;;;;;;;;31.78;63.08;101077.31;5012654;28;70274;-35
2021/10/31 04:58:29;;;;;;;;;;;;;;;31.55;61.37;101035.38;5010316;28;66947;-34
2021/10/31 05:01:00;;;;;;;;;;;;;;;31.75;61.77;101056.06;5007043;28;70348;-34
2021/10/31 05:03:31;;;;;;;;;;;;;;;31.92;63.21;101073.47;5010027;28;65929;-36
2021/10/31 05:06:02;;;;;;;;;;;;;;;31.97;63.86;101070.09;5008628;28;68938;-35
2021/10/31 05:08:34;;;;;;;;;;;;;;;31.81;63.51;101060.59;5011117;28;66908;-34
2021/10/31 05:11:05;;;;;;;;;;;;;;;31.55;63.80;101038.09;5013272;28;69105;-34
2021/10/31 05:13:41;;;;;;;;;;;;;;;31.59;63.97;101058.31;5002468;28;66288;-34
2021/10/31 05:16:24;;;;;;;;;;;;;;;31.48;63.99;101045.47;5010115;28;69451;-35
2021/10/31 05:19:20;;;;;;;;;;;;;;;31.39;62.92;101044.06;5007842;28;65291;-34
2021/10/31 05:22:00;;;;;;;;;;;;;;;31.30;62.20;101040.75;5012031;28;69301;-34
2021/10/31 05:24:37;;;;;;;;;;;;;;;31.26;62.39;101036.84;5007974;28;65576;-34
2021/10/31 05:27:07;;;;;;;;;;;;;;;31.22;62.42;101029.34;5011496;28;70598;-35
2021/10/31 05:29:37;;;;;;;;;;;;;;;31.16;62.18;101026.47;5012414;28;66395;-34
2021/10/31 05:32:08;;;;;;;;;;;;;;;31.14;61.81;101017.72;5007910;28;70848;-39
2021/10/31 05:34:38;;;;;;;;;;;;;;;31.16;62.60;101015.63;5009477;28;65448;-35
2021/10/31 05:37:09;;;;;;;;;;;;;;;31.19;62.05;101005.41;5011825;28;69257;-36
2021/10/31 05:39:40;;;;;;;;;;;;;;;31.17;61.86;101005.59;5011380;28;65675;-37
2021/10/31 05:42:10;;;;;;;;;;;;;;;31.15;61.52;100986.88;5014739;28;69839;-36
2021/10/31 05:44:40;;;;;;;;;;;;;;;31.15;62.65;100986.06;5005995;28;65704;-37
2021/10/31 05:47:11;;;;;;;;;;;;;;;31.15;63.22;100989.59;5007206;28;69918;-35
2021/10/31 05:49:41;;;;;;;;;;;;;;;31.15;62.41;100986.88;5009458;28;65982;-38
2021/10/31 05:52:12;;;;;;;;;;;;;;;31.11;62.07;100985.63;5007736;28;69869;-38
2021/10/31 05:54:42;;;;;;;;;;;;;;;31.09;61.73;100985.06;5006354;28;65586;-38
2021/10/31 05:57:14;;;;;;;;;;;;;;;31.04;61.02;100979.44;5008868;28;70374;-39
2021/10/31 05:59:46;;;;;;;;;;;;;;;31.03;60.08;100983.19;4996120;28;66348;-38
2021/10/31 06:02:16;;;;;;;;;;;;;;;31.02;59.33;100978.84;5013673;28;70418;-36
2021/10/31 06:04:47;;;;;;;;;;;;;;;30.99;58.89;100971.16;5012132;28;67188;-37
2021/10/31 06:07:20;;;;;;;;;;;;;;;30.99;58.03;100949.47;5011712;28;68486;-38
2021/10/31 06:09:52;;;;;;;;;;;;;;;30.96;57.48;100960.75;5008739;28;66916;-37
2021/10/31 06:12:23;;;;;;;;;;;;;;;30.92;57.42;100943.25;5016186;28;70077;-36
2021/10/31 06:14:53;;;;;;;;;;;;;;;30.93;56.92;100945.75;5011273;28;65999;-36
2021/10/31 06:17:24;;;;;;;;;;;;;;;30.91;56.24;100936.19;5018911;28;70222;-37
2021/10/31 06:19:54;;;;;;;;;;;;;;;30.61;55.78;100882.63;5014267;28;66995;-38
2021/10/31 06:22:24;;;;;;;;;;;;;;;30.90;55.65;100931.84;5012195;28;70074;-37
2021/10/31 06:24:55;;;;;;;;;;;;;;;30.91;55.40;100925.38;5014000;28;66704;-36
2021/10/31 06:27:25;;;;;;;;;;;;;;;30.93;54.97;100921.38;5013702;28;70189;-37
2021/10/31 06:29:56;;;;;;;;;;;;;;;30.95;54.56;100923.84;5012368;28;67129;-36
2021/10/31 06:32:27;;;;;;;;;;;;;;;30.94;53.77;100903.25;5006475;28;70180;-37
2021/10/31 06:34:59;;;;;;;;;;;;;;;30.94;53.75;100905.97;5014511;28;66016;-36
2021/10/31 06:37:30;;;;;;;;;;;;;;;30.92;53.23;100894.50;5011420;28;69950;-38
2021/10/31 06:40:01;;;;;;;;;;;;;;;30.96;53.31;100895.75;5010542;28;66833;-36
2021/10/31 06:42:53;;;;;;;;;;;;;;;30.96;52.83;100895.75;5009832;28;70316;-36
2021/10/31 06:45:25;;;;;;;;;;;;;;;31.00;52.89;100882.56;5003181;28;66587;-37
2021/10/31 06:47:55;;;;;;;;;;;;;;;31.01;52.70;100887.78;5015548;28;70268;-37
2021/10/31 06:50:26;;;;;;;;;;;;;;;31.01;52.16;100881.50;5011725;28;64993;-37
2021/10/31 06:52:57;;;;;;;;;;;;;;;31.02;52.34;100881.31;5031648;28;69556;-37
2021/10/31 06:55:35;;;;;;;;;;;;;;;31.04;52.31;100887.34;5007258;28;65728;-38
2021/10/31 06:58:08;;;;;;;;;;;;;;;31.05;51.96;100894.41;5014646;28;70176;-38
2021/10/31 07:00:40;;;;;;;;;;;;;;;31.05;51.86;100894.41;5016325;28;65542;-36
2021/10/31 07:03:12;;;;;;;;;;;;;;;31.00;51.69;100880.69;5014005;28;69933;-38
2021/10/31 07:05:43;;;;;;;;;;;;;;;30.98;52.11;100869.28;5017217;28;66498;-36
2021/10/31 07:08:13;;;;;;;;;;;;;;;31.11;51.87;100885.38;5015963;28;70623;-36
2021/10/31 07:10:44;;;;;;;;;;;;;;;31.13;51.23;100879.75;5018614;28;66052;-37
2021/10/31 07:13:14;;;;;;;;;;;;;;;31.12;51.67;100870.81;5010297;28;70052;-37
2021/10/31 07:15:44;;;;;;;;;;;;;;;31.11;50.84;100865.59;5017735;28;65357;-37
2021/10/31 07:18:15;;;;;;;;;;;;;;;31.14;51.67;100854.31;5011542;28;69449;-35
2021/10/31 07:20:46;;;;;;;;;;;;;;;31.18;51.70;100863.66;5019512;28;65684;-37
2021/10/31 07:23:17;;;;;;;;;;;;;;;31.22;52.29;100855.91;5018289;28;69204;-36
2021/10/31 07:25:47;;;;;;;;;;;;;;;31.28;52.29;100865.84;5017963;28;68215;-36
2021/10/31 07:28:17;;;;;;;;;;;;;;;31.33;53.40;100863.31;5010449;28;69628;-37
2021/10/31 07:30:48;;;;;;;;;;;;;;;31.38;53.29;100860.78;5016572;28;65745;-37
2021/10/31 07:33:18;;;;;;;;;;;;;;;31.39;53.80;100867.84;5016346;28;69630;-37
2021/10/31 07:35:49;;;;;;;;;;;;;;;31.43;53.13;100846.56;5016836;28;65235;-36
2021/10/31 07:38:20;;;;;;;;;;;;;;;31.45;53.57;100852.56;5014621;28;70338;-36
2021/10/31 07:40:51;;;;;;;;;;;;;;;31.50;55.55;100844.59;5012997;28;67111;-36
2021/10/31 07:43:22;;;;;;;;;;;;;;;31.59;58.18;100852.22;5013201;28;68516;-37
2021/10/31 07:45:52;;;;;;;;;;;;;;;31.62;59.07;100867.19;5016192;28;65487;-37
2021/10/31 07:48:22;;;;;;;;;;;;;;;31.65;58.74;100850.50;4999496;28;69033;-37
2021/10/31 07:50:53;;;;;;;;;;;;;;;31.66;58.02;100843.19;5015833;28;66898;-36
2021/10/31 07:53:23;;;;;;;;;;;;;;;31.65;57.58;100845.06;5016120;28;70239;-37
2021/10/31 07:55:54;;;;;;;;;;;;;;;31.62;57.86;100842.78;5013514;28;66108;-37
2021/10/31 07:58:26;;;;;;;;;;;;;;;31.61;58.54;100839.25;5011341;28;70023;-37
2021/10/31 08:00:57;;;;;;;;;;;;;;;31.66;57.96;100846.72;5016326;28;66475;-36
2021/10/31 08:03:28;;;;;;;;;;;;;;;31.55;57.92;100834.72;5013054;28;69994;-37
2021/10/31 08:05:59;;;;;;;;;;;;;;;31.70;58.37;100852.50;5014946;28;65463;-37
2021/10/31 08:08:31;;;;;;;;;;;;;;;31.65;58.46;100834.22;5015889;28;68707;-36
2021/10/31 08:11:01;;;;;;;;;;;;;;;31.64;58.39;100837.16;5013260;28;65646;-35
2021/10/31 08:13:32;;;;;;;;;;;;;;;31.64;58.29;100834.44;5011760;28;69240;-37
2021/10/31 08:16:03;;;;;;;;;;;;;;;31.61;59.32;100828.41;5017467;28;65837;-33
2021/10/31 08:18:34;;;;;;;;;;;;;;;31.63;58.59;100824.66;5016708;28;69383;-35
2021/10/31 08:21:05;;;;;;;;;;;;;;;31.65;58.44;100836.09;5016958;28;65609;-35
2021/10/31 08:23:36;;;;;;;;;;;;;;;31.61;57.97;100828.41;5032563;28;69323;-35
2021/10/31 08:26:06;;;;;;;;;;;;;;;31.63;57.32;100832.78;5011968;28;65681;-36
2021/10/31 08:28:38;;;;;;;;;;;;;;;31.66;58.82;100824.19;5011982;28;70008;-36
2021/10/31 08:31:09;;;;;;;;;;;;;;;31.79;61.23;100826.75;5017533;28;66349;-38
2021/10/31 08:33:45;;;;;;;;;;;;;;;31.93;62.60;100814.69;5019353;28;69827;-37
2021/10/31 08:36:17;;;;;;;;;;;;;;;32.07;63.38;100822.63;4992678;28;66735;-36
2021/10/31 08:38:47;;;;;;;;;;;;;;;32.18;63.59;100840.84;5009208;28;69069;-35
2021/10/31 08:41:19;;;;;;;;;;;;;;;32.27;64.42;100848.44;5018902;28;66870;-36
2021/10/31 08:43:53;;;;;;;;;;;;;;;32.32;63.96;100855.91;5008956;28;69147;-35
2021/10/31 08:46:23;;;;;;;;;;;;;;;32.36;63.58;100867.94;5019079;28;65986;-38
2021/10/31 08:48:54;;;;;;;;;;;;;;;32.43;64.10;100863.28;5017000;28;69770;-36
2021/10/31 08:51:25;;;;;;;;;;;;;;;32.48;64.20;100863.44;5017228;28;66838;-36
2021/10/31 08:53:56;;;;;;;;;;;;;;;32.55;64.58;100876.91;5020230;28;70153;-35
2021/10/31 08:56:27;;;;;;;;;;;;;;;32.54;66.81;100874.41;5017720;28;66689;-36
2021/10/31 08:58:58;;;;;;;;;;;;;;;32.48;68.03;100871.59;5016367;28;70384;-35
2021/10/31 09:01:29;;;;;;;;;;;;;;;32.45;68.47;100872.00;5022474;28;66447;-36
2021/10/31 09:04:00;;;;;;;;;;;;;;;32.37;69.53;100877.75;5019179;28;70042;-36
2021/10/31 09:06:31;;;;;;;;;;;;;;;32.35;69.94;100882.59;5018990;28;65490;-37
2021/10/31 09:09:02;;;;;;;;;;;;;;;32.37;69.23;100891.31;5019358;28;68809;-38
2021/10/31 09:11:33;;;;;;;;;;;;;;;32.39;69.10;100883.78;5018317;28;66421;-35
2021/10/31 09:14:03;;;;;;;;;;;;;;;32.39;68.57;100886.50;5016858;28;70505;-36
2021/10/31 09:16:34;;;;;;;;;;;;;;;32.41;68.69;100892.53;5016679;28;66122;-36
2021/10/31 09:19:04;;;;;;;;;;;;;;;32.44;68.25;100897.50;5019034;28;70682;-36
2021/10/31 09:21:36;;;;;;;;;;;;;;;32.44;68.12;100902.91;5016884;28;65484;-36
2021/10/31 09:24:07;;;;;;;;;;;;;;;32.46;68.14;100906.28;5017709;28;69279;-35
2021/10/31 09:26:37;;;;;;;;;;;;;;;32.47;67.95;100902.50;5018288;28;65453;-35
2021/10/31 09:29:08;;;;;;;;;;;;;;;32.49;68.28;100900.38;5010152;28;69644;-36
2021/10/31 09:31:40;;;;;;;;;;;;;;;32.49;68.06;100900.38;5022541;28;65866;-35
2021/10/31 09:34:13;;;;;;;;;;;;;;;32.49;67.59;100911.25;5020598;28;70259;-35
2021/10/31 09:36:43;;;;;;;;;;;;;;;32.49;67.72;100911.25;5015479;28;66544;-36
2021/10/31 09:39:14;;;;;;;;;;;;;;;32.52;67.55;100918.09;5022893;28;70487;-37
2021/10/31 09:41:45;;;;;;;;;;;;;;;32.51;67.49;100924.56;5020832;28;66412;-35
2021/10/31 09:44:47;;;;;;;;;;;;;;;32.49;67.34;100932.97;5019976;28;69399;-35
2021/10/31 09:47:10;;;;;;;;;;;;;;;32.48;67.69;100930.47;5021466;28;67419;-36
2021/10/31 09:49:41;;;;;;;;;;;;;;;32.51;67.38;100931.91;5018608;28;71285;-39
2021/10/31 09:52:12;;;;;;;;;;;;;;;32.48;67.35;100935.91;5022635;28;66065;-35
2021/10/31 09:54:43;;;;;;;;;;;;;;;32.45;67.48;100931.72;5017026;28;70685;-36
2021/10/31 09:57:14;;;;;;;;;;;;;;;32.46;67.58;100928.00;5016972;28;67681;-37
2021/10/31 09:59:52;;;;;;;;;;;;;;;32.48;67.38;100928.59;5016232;28;69795;-36
2021/10/31 10:03:00;;;;;;;;;;;;;;;32.45;67.06;100926.28;5013762;28;65342;-36
2021/10/31 10:05:31;;;;;;;;;;;;;;;32.44;67.50;100923.81;5012722;28;70034;-35
2021/10/31 10:08:08;;;;;;;;;;;;;;;32.44;67.43;100935.50;5007425;28;66213;-36
2021/10/31 10:10:39;;;;;;;;;;;;;;;32.41;67.50;100935.97;5014732;28;70112;-36
2021/10/31 10:13:19;;;;;;;;;;;;;;;32.43;67.80;100936.56;5012680;28;66247;-35
2021/10/31 10:15:50;;;;;;;;;;;;;;;32.43;67.51;100933.00;5015785;28;69662;-37
2021/10/31 10:18:29;;;;;;;;;;;;;;;32.43;67.70;100944.72;5014113;28;65415;-36
2021/10/31 10:21:19;;;;;;;;;;;;;;;32.43;68.40;100944.72;5017172;28;69266;-36
2021/10/31 10:23:51;;;;;;;;;;;;;;;32.41;68.27;100949.53;5007028;28;65522;-37
2021/10/31 10:26:31;;;;;;;;;;;;;;;32.41;68.43;100954.97;5018963;28;69433;-35
2021/10/31 10:29:20;;;;;;;;;;;;;;;32.37;68.53;100947.50;5006222;28;66419;-37
2021/10/31 10:31:52;;;;;;;;;;;;;;;32.39;68.16;100959.78;5025696;28;68970;-36
2021/10/31 10:34:41;;;;;;;;;;;;;;;32.38;68.02;100955.44;5021196;28;66137;-37
2021/10/31 10:37:29;;;;;;;;;;;;;;;32.36;68.21;100965.69;5021525;28;69493;-36
2021/10/31 10:40:01;;;;;;;;;;;;;;;32.34;68.41;100966.97;5022812;28;65167;-36
2021/10/31 10:42:36;;;;;;;;;;;;;;;32.30;68.27;100974.75;4977946;28;69896;-36
2021/10/31 10:45:11;;;;;;;;;;;;;;;32.31;68.31;100989.97;5026081;28;65996;-37
2021/10/31 10:47:44;;;;;;;;;;;;;;;32.31;68.01;100992.69;5026493;28;70264;-36
2021/10/31 10:50:18;;;;;;;;;;;;;;;32.28;68.28;101006.72;5023149;28;65678;-36
2021/10/31 10:52:49;;;;;;;;;;;;;;;32.27;68.31;101015.91;5020364;28;70400;-37
2021/10/31 10:55:22;;;;;;;;;;;;;;;32.27;68.21;101010.50;5022671;28;68234;-36
2021/10/31 10:57:53;;;;;;;;;;;;;;;32.26;68.13;101003.38;5023640;28;70042;-37
2021/10/31 11:00:27;;;;;;;;;;;;;;;32.25;68.33;101018.03;5022513;28;66227;-36
2021/10/31 11:03:02;;;;;;;;;;;;;;;32.23;68.56;101003.84;5025968;28;69926;-37
2021/10/31 11:05:34;;;;;;;;;;;;;;;32.21;68.44;101017.66;5023508;28;65687;-37
2021/10/31 11:08:12;;;;;;;;;;;;;;;32.21;68.36;101016.84;5026320;28;71598;-36
2021/10/31 11:10:44;;;;;;;;;;;;;;;32.18;68.48;101022.69;5022562;28;66174;-36
2021/10/31 11:13:15;;;;;;;;;;;;;;;32.17;68.69;101021.03;5006598;28;69695;-36
2021/10/31 11:15:46;;;;;;;;;;;;;;;32.14;67.62;101033.16;5026608;28;67387;-37
2021/10/31 11:18:16;;;;;;;;;;;;;;;32.09;67.35;101027.59;5022105;28;69659;-36
2021/10/31 11:20:48;;;;;;;;;;;;;;;32.03;67.20;101026.59;5023628;28;67109;-36
2021/10/31 11:23:23;;;;;;;;;;;;;;;32.07;67.80;101015.28;5020115;28;70869;-36
2021/10/31 11:25:59;;;;;;;;;;;;;;;32.05;68.13;101018.25;5019980;28;65511;-35
2021/10/31 11:28:30;;;;;;;;;;;;;;;32.08;68.19;101022.41;5021443;28;71017;-36
2021/10/31 11:31:03;;;;;;;;;;;;;;;32.05;68.22;101021.78;5017998;28;65323;-36
2021/10/31 11:33:34;;;;;;;;;;;;;;;32.04;68.50;101020.13;5018093;28;70200;-36
2021/10/31 11:36:05;;;;;;;;;;;;;;;32.07;68.95;101020.72;5006774;28;66083;-37
2021/10/31 11:38:38;;;;;;;;;;;;;;;32.05;69.09;101024.50;5012798;28;69888;-36
2021/10/31 11:41:10;;;;;;;;;;;;;;;32.05;69.53;101029.94;5004725;28;66128;-36
2021/10/31 11:43:48;;;;;;;;;;;;;;;32.05;70.13;101024.50;5011167;28;68972;-36
2021/10/31 11:46:18;;;;;;;;;;;;;;;32.06;69.56;101028.03;5019267;28;65694;-36
2021/10/31 11:48:59;;;;;;;;;;;;;;;32.04;70.10;101033.72;5022641;28;70175;-36
2021/10/31 11:51:40;;;;;;;;;;;;;;;32.05;69.99;101040.78;5018211;28;66911;-35
2021/10/31 11:54:12;;;;;;;;;;;;;;;32.07;70.23;101042.44;5018569;28;70744;-36
2021/10/31 11:56:50;;;;;;;;;;;;;;;32.05;70.13;101054.34;5014249;28;66015;-35
2021/10/31 11:59:22;;;;;;;;;;;;;;;32.03;70.53;101053.75;4997320;28;70137;-35
2021/10/31 12:01:56;;;;;;;;;;;;;;;32.00;70.32;101043.34;5003812;28;66103;-35
2021/10/31 12:04:26;;;;;;;;;;;;;;;31.83;70.27;101026.78;5005872;28;69517;-35
2021/10/31 12:06:58;;;;;;;;;;;;;;;31.99;70.51;101063.41;4997300;28;66483;-36
2021/10/31 12:09:30;;;;;;;;;;;;;;;31.98;70.27;101056.31;5010034;28;69947;-35
2021/10/31 12:12:03;;;;;;;;;;;;;;;32.00;70.32;101066.94;5000942;28;66503;-36
2021/10/31 12:14:46;;;;;;;;;;;;;;;31.97;70.19;101070.09;5015946;28;69900;-36
2021/10/31 12:17:17;;;;;;;;;;;;;;;31.95;70.07;101078.44;5016491;28;65716;-36
2021/10/31 12:19:49;;;;;;;;;;;;;;;31.95;70.62;101089.28;5015580;28;70798;-36
2021/10/31 12:22:29;;;;;;;;;;;;;;;31.83;69.74;101085.63;5015902;28;65762;-36
2021/10/31 12:25:07;;;;;;;;;;;;;;;31.71;69.59;101093.66;5015783;28;69272;-36
2021/10/31 12:27:42;;;;;;;;;;;;;;;31.64;69.43;101094.75;5011215;28;65484;-36
2021/10/31 12:30:21;;;;;;;;;;;;;;;31.51;70.14;101099.25;5029123;28;70045;-36
2021/10/31 12:33:06;;;;;;;;;;;;;;;31.44;70.75;101103.88;5019221;28;67009;-36
2021/10/31 12:35:37;;;;;;;;;;;;;;;31.38;71.06;101099.31;5013622;28;68773;-37
2021/10/31 12:38:28;;;;;;;;;;;;;;;31.35;73.02;101107.88;5005566;28;66951;-37
2021/10/31 12:41:09;;;;;;;;;;;;;;;31.35;74.40;101116.81;5006425;28;69808;-37
2021/10/31 12:43:45;;;;;;;;;;;;;;;31.36;75.29;101125.81;5013205;28;65758;-36
2021/10/31 12:46:23;;;;;;;;;;;;;;;31.35;75.57;101127.66;5013777;28;70284;-36
2021/10/31 12:49:01;;;;;;;;;;;;;;;31.36;76.40;101134.78;5028398;28;59936;-36
2021/10/31 12:51:36;;;;;;;;;;;;;;;31.35;76.79;101133.09;5004989;28;70376;-37
2021/10/31 12:54:08;;;;;;;;;;;;;;;31.35;76.70;101141.22;5012252;28;66618;-37
2021/10/31 12:56:39;;;;;;;;;;;;;;;31.34;77.13;101136.00;5011046;28;69332;-37
2021/10/31 12:59:12;;;;;;;;;;;;;;;31.35;77.29;101153.94;5008889;28;66834;-36
2021/10/31 13:01:43;;;;;;;;;;;;;;;31.35;77.43;101149.34;5006114;28;69944;-36
2021/10/31 13:04:14;;;;;;;;;;;;;;;31.34;77.48;101152.25;5011180;28;66260;-36
2021/10/31 13:06:55;;;;;;;;;;;;;;;31.36;77.57;101167.28;5009908;28;69351;-37